JES3032 SULS-SABE
Flight info
| Callsign | JES3032 |
|---|---|
| Flight time | 0h 44m |
| Altitude | 24000 |
| Route | LUCIO A306 UGIMI UGIMI8Q |
| Aircraft | A320/M-SDE3FGHIRWY/LB1 |
Departure
| Time | 2026-05-05 00:31 |
|---|---|
| Airport | Capitan Corbeta CA Curbelo International Airport (SULS) |
Arrival
| Time | 2026-05-05 01:16 |
|---|---|
| Airport | Aeroparque Jorge Newbery (SABE) |
| Time | Latitude | Longitude | Altitude | Speed | Heading |
|---|---|---|---|---|---|
| 2026-05-05 00:27 | -34.85987 | -55.09937 | 99 ft | 3 kts | 161° |
| 2026-05-05 00:27 | -34.86002 | -55.09888 | 100 ft | 11 kts | 78° |
| 2026-05-05 00:28 | -34.85949 | -55.09799 | 100 ft | 15 kts | 353° |
| 2026-05-05 00:28 | -34.85831 | -55.09848 | 100 ft | 20 kts | 341° |
| 2026-05-05 00:28 | -34.85722 | -55.09891 | 101 ft | 15 kts | 342° |
| 2026-05-05 00:28 | -34.85649 | -55.09974 | 102 ft | 19 kts | 253° |
| 2026-05-05 00:29 | -34.85691 | -55.10156 | 100 ft | 26 kts | 248° |
| 2026-05-05 00:29 | -34.85772 | -55.10392 | 99 ft | 30 kts | 248° |
| 2026-05-05 00:29 | -34.85834 | -55.10598 | 100 ft | 16 kts | 251° |
| 2026-05-05 00:29 | -34.85878 | -55.10761 | 101 ft | 23 kts | 252° |
| 2026-05-05 00:30 | -34.85930 | -55.10983 | 100 ft | 31 kts | 252° |
| 2026-05-05 00:30 | -34.85984 | -55.11147 | 100 ft | 12 kts | 220° |
| 2026-05-05 00:30 | -34.86003 | -55.11191 | 101 ft | 5 kts | 346° |
| 2026-05-05 00:30 | -34.85973 | -55.11140 | 100 ft | 12 kts | 73° |
| 2026-05-05 00:31 | -34.85892 | -55.10839 | 100 ft | 72 kts | 71° |
| 2026-05-05 00:31 | -34.85674 | -55.10029 | 102 ft | 126 kts | 71° |
| 2026-05-05 00:31 | -34.85368 | -55.08882 | 332 ft | 148 kts | 71° |
| 2026-05-05 00:31 | -34.85050 | -55.07673 | 866 ft | 154 kts | 70° |
| 2026-05-05 00:32 | -34.84728 | -55.06410 | 1442 ft | 157 kts | 69° |
| 2026-05-05 00:32 | -34.84363 | -55.05071 | 1698 ft | 177 kts | 60° |
| 2026-05-05 00:32 | -34.83601 | -55.03880 | 2074 ft | 182 kts | 27° |
| 2026-05-05 00:32 | -34.82378 | -55.03632 | 2421 ft | 187 kts | 340° |
| 2026-05-05 00:33 | -34.81338 | -55.04577 | 2784 ft | 197 kts | 300° |
| 2026-05-05 00:33 | -34.80946 | -55.06267 | 3064 ft | 220 kts | 266° |
| 2026-05-05 00:33 | -34.81339 | -55.08144 | 3461 ft | 244 kts | 252° |
| 2026-05-05 00:33 | -34.81941 | -55.10120 | 4216 ft | 252 kts | 250° |
| 2026-05-05 00:34 | -34.82594 | -55.12122 | 5091 ft | 256 kts | 250° |
| 2026-05-05 00:34 | -34.83256 | -55.14144 | 5994 ft | 258 kts | 250° |
| 2026-05-05 00:34 | -34.83911 | -55.16182 | 6885 ft | 259 kts | 250° |
| 2026-05-05 00:34 | -34.84558 | -55.18238 | 7714 ft | 261 kts | 251° |
| 2026-05-05 00:35 | -34.85206 | -55.20316 | 8537 ft | 264 kts | 251° |
| 2026-05-05 00:35 | -34.85857 | -55.22423 | 9353 ft | 267 kts | 251° |
| 2026-05-05 00:35 | -34.86512 | -55.24550 | 10133 ft | 270 kts | 251° |
| 2026-05-05 00:35 | -34.87191 | -55.26767 | 10474 ft | 290 kts | 251° |
| 2026-05-05 00:36 | -34.87920 | -55.29163 | 10695 ft | 311 kts | 251° |
| 2026-05-05 00:36 | -34.88684 | -55.31668 | 11228 ft | 319 kts | 251° |
| 2026-05-05 00:36 | -34.89462 | -55.34209 | 11907 ft | 322 kts | 251° |
| 2026-05-05 00:36 | -34.90245 | -55.36770 | 12597 ft | 324 kts | 250° |
| 2026-05-05 00:37 | -34.91034 | -55.39351 | 13286 ft | 326 kts | 250° |
| 2026-05-05 00:37 | -34.91829 | -55.41948 | 13944 ft | 329 kts | 250° |
| 2026-05-05 00:37 | -34.92359 | -55.43686 | 14346 ft | 330 kts | 250° |
| 2026-05-05 00:37 | -34.93160 | -55.46312 | 14942 ft | 332 kts | 250° |
| 2026-05-05 00:38 | -34.93967 | -55.48954 | 15545 ft | 334 kts | 250° |
| 2026-05-05 00:38 | -34.94779 | -55.51613 | 16140 ft | 336 kts | 250° |
| 2026-05-05 00:38 | -34.95590 | -55.54287 | 16738 ft | 337 kts | 251° |
| 2026-05-05 00:38 | -34.96404 | -55.56980 | 17335 ft | 339 kts | 251° |
| 2026-05-05 00:39 | -34.97219 | -55.59683 | 17937 ft | 341 kts | 251° |
| 2026-05-05 00:39 | -34.98041 | -55.62409 | 18494 ft | 343 kts | 251° |
| 2026-05-05 00:39 | -34.98868 | -55.65147 | 19020 ft | 345 kts | 251° |
| 2026-05-05 00:39 | -34.99703 | -55.67898 | 19565 ft | 347 kts | 250° |
| 2026-05-05 00:40 | -35.00542 | -55.70665 | 20099 ft | 349 kts | 251° |
| 2026-05-05 00:40 | -35.01382 | -55.73445 | 20619 ft | 350 kts | 251° |
| 2026-05-05 00:40 | -35.02225 | -55.76245 | 21123 ft | 352 kts | 251° |
| 2026-05-05 00:40 | -35.03070 | -55.79064 | 21623 ft | 354 kts | 251° |
| 2026-05-05 00:41 | -35.03916 | -55.81891 | 22119 ft | 356 kts | 251° |
| 2026-05-05 00:41 | -35.04755 | -55.84736 | 22595 ft | 357 kts | 253° |
| 2026-05-05 00:41 | -35.05263 | -55.87704 | 23056 ft | 359 kts | 264° |
| 2026-05-05 00:41 | -35.05266 | -55.90762 | 23508 ft | 363 kts | 272° |
| 2026-05-05 00:42 | -35.05051 | -55.93840 | 23845 ft | 365 kts | 272° |
| 2026-05-05 00:42 | -35.04841 | -55.96924 | 23919 ft | 364 kts | 272° |
| 2026-05-05 00:42 | -35.04636 | -55.99983 | 23954 ft | 361 kts | 272° |
| 2026-05-05 00:42 | -35.04433 | -56.03035 | 23955 ft | 360 kts | 272° |
| 2026-05-05 00:43 | -35.04231 | -56.06075 | 23955 ft | 360 kts | 272° |
| 2026-05-05 00:43 | -35.04026 | -56.09118 | 23955 ft | 359 kts | 272° |
| 2026-05-05 00:43 | -35.03819 | -56.12154 | 23955 ft | 359 kts | 272° |
| 2026-05-05 00:43 | -35.03608 | -56.15193 | 23956 ft | 359 kts | 272° |
| 2026-05-05 00:44 | -35.03397 | -56.18230 | 23957 ft | 359 kts | 272° |
| 2026-05-05 00:44 | -35.03187 | -56.21265 | 23957 ft | 359 kts | 272° |
| 2026-05-05 00:44 | -35.02977 | -56.24267 | 23958 ft | 359 kts | 272° |
| 2026-05-05 00:44 | -35.02763 | -56.27306 | 23965 ft | 359 kts | 272° |
| 2026-05-05 00:45 | -35.02548 | -56.30342 | 23968 ft | 359 kts | 272° |
| 2026-05-05 00:45 | -35.02331 | -56.33378 | 23971 ft | 359 kts | 273° |
| 2026-05-05 00:45 | -35.02113 | -56.36409 | 23972 ft | 359 kts | 273° |
| 2026-05-05 00:45 | -35.01892 | -56.39442 | 23972 ft | 359 kts | 273° |
| 2026-05-05 00:46 | -35.01672 | -56.42479 | 23970 ft | 359 kts | 273° |
| 2026-05-05 00:46 | -35.01454 | -56.45508 | 23970 ft | 359 kts | 273° |
| 2026-05-05 00:46 | -35.01235 | -56.48540 | 23970 ft | 359 kts | 273° |
| 2026-05-05 00:46 | -35.01012 | -56.51573 | 23946 ft | 359 kts | 273° |
| 2026-05-05 00:47 | -35.00790 | -56.54603 | 23946 ft | 359 kts | 273° |
| 2026-05-05 00:47 | -35.00570 | -56.57632 | 23950 ft | 359 kts | 273° |
| 2026-05-05 00:47 | -35.00350 | -56.60667 | 23951 ft | 359 kts | 273° |
| 2026-05-05 00:47 | -35.00129 | -56.63697 | 23956 ft | 359 kts | 273° |
| 2026-05-05 00:48 | -34.99906 | -56.66736 | 23955 ft | 359 kts | 273° |
| 2026-05-05 00:48 | -34.99684 | -56.69768 | 23957 ft | 359 kts | 273° |
| 2026-05-05 00:48 | -34.99461 | -56.72806 | 23954 ft | 359 kts | 273° |
| 2026-05-05 00:48 | -34.99234 | -56.75842 | 23959 ft | 359 kts | 273° |
| 2026-05-05 00:49 | -34.99005 | -56.78872 | 23963 ft | 359 kts | 273° |
| 2026-05-05 00:49 | -34.98774 | -56.81903 | 23963 ft | 359 kts | 273° |
| 2026-05-05 00:49 | -34.98542 | -56.84938 | 23969 ft | 359 kts | 273° |
| 2026-05-05 00:49 | -34.98316 | -56.87965 | 23970 ft | 359 kts | 272° |
| 2026-05-05 00:50 | -34.98272 | -56.91002 | 23968 ft | 358 kts | 269° |
| 2026-05-05 00:50 | -34.98265 | -56.94035 | 23969 ft | 358 kts | 269° |
| 2026-05-05 00:50 | -34.98256 | -56.97071 | 23970 ft | 358 kts | 269° |
| 2026-05-05 00:50 | -34.98243 | -57.00104 | 23971 ft | 358 kts | 269° |
| 2026-05-05 00:51 | -34.98228 | -57.03138 | 23971 ft | 358 kts | 269° |
| 2026-05-05 00:51 | -34.98213 | -57.06167 | 23968 ft | 357 kts | 269° |
| 2026-05-05 00:51 | -34.98200 | -57.09199 | 23967 ft | 357 kts | 269° |
| 2026-05-05 00:51 | -34.98187 | -57.12222 | 23949 ft | 357 kts | 269° |
| 2026-05-05 00:52 | -34.98175 | -57.15253 | 23951 ft | 357 kts | 269° |
| 2026-05-05 00:52 | -34.98160 | -57.18282 | 23949 ft | 357 kts | 269° |
| 2026-05-05 00:52 | -34.98144 | -57.21305 | 23950 ft | 357 kts | 269° |
| 2026-05-05 00:52 | -34.98128 | -57.24302 | 23951 ft | 357 kts | 269° |
| 2026-05-05 00:53 | -34.98113 | -57.27366 | 23950 ft | 357 kts | 269° |
| 2026-05-05 00:53 | -34.98097 | -57.30357 | 23952 ft | 357 kts | 269° |
| 2026-05-05 00:53 | -34.98079 | -57.33382 | 23954 ft | 357 kts | 269° |
| 2026-05-05 00:53 | -34.98059 | -57.36458 | 23958 ft | 357 kts | 269° |
| 2026-05-05 00:54 | -34.98039 | -57.39448 | 23958 ft | 357 kts | 269° |
| 2026-05-05 00:54 | -34.98018 | -57.42480 | 23960 ft | 357 kts | 269° |
| 2026-05-05 00:54 | -34.97995 | -57.45502 | 23961 ft | 357 kts | 269° |
| 2026-05-05 00:54 | -34.97970 | -57.48537 | 23963 ft | 357 kts | 269° |
| 2026-05-05 00:55 | -34.97946 | -57.51554 | 23960 ft | 357 kts | 269° |
| 2026-05-05 00:55 | -34.97922 | -57.54582 | 23968 ft | 357 kts | 270° |
| 2026-05-05 00:55 | -34.97894 | -57.57610 | 23971 ft | 357 kts | 270° |
| 2026-05-05 00:55 | -34.97869 | -57.60630 | 23970 ft | 357 kts | 269° |
| 2026-05-05 00:56 | -34.97845 | -57.63661 | 23974 ft | 357 kts | 269° |
| 2026-05-05 00:56 | -34.97820 | -57.66685 | 23985 ft | 357 kts | 270° |
| 2026-05-05 00:56 | -34.97795 | -57.69705 | 23989 ft | 356 kts | 270° |
| 2026-05-05 00:56 | -34.97766 | -57.72726 | 23991 ft | 356 kts | 270° |
| 2026-05-05 00:57 | -34.97738 | -57.75746 | 23993 ft | 356 kts | 270° |
| 2026-05-05 00:57 | -34.97709 | -57.78761 | 23995 ft | 356 kts | 270° |
| 2026-05-05 00:57 | -34.97677 | -57.81773 | 23976 ft | 355 kts | 270° |
| 2026-05-05 00:57 | -34.97642 | -57.84789 | 23978 ft | 355 kts | 270° |
| 2026-05-05 00:58 | -34.97607 | -57.87804 | 23979 ft | 355 kts | 270° |
| 2026-05-05 00:58 | -34.97334 | -57.90794 | 23979 ft | 357 kts | 280° |
| 2026-05-05 00:58 | -34.96669 | -57.93722 | 23982 ft | 358 kts | 283° |
| 2026-05-05 00:58 | -34.95976 | -57.96638 | 23984 ft | 358 kts | 283° |
| 2026-05-05 00:59 | -34.95286 | -57.99555 | 23986 ft | 358 kts | 283° |
| 2026-05-05 00:59 | -34.94599 | -58.02465 | 23984 ft | 358 kts | 283° |
| 2026-05-05 00:59 | -34.93911 | -58.05386 | 23979 ft | 358 kts | 283° |
| 2026-05-05 00:59 | -34.93225 | -58.08294 | 23975 ft | 358 kts | 283° |
| 2026-05-05 01:00 | -34.92536 | -58.11210 | 23969 ft | 358 kts | 283° |
| 2026-05-05 01:00 | -34.91847 | -58.14116 | 23941 ft | 357 kts | 283° |
| 2026-05-05 01:00 | -34.91155 | -58.17026 | 23717 ft | 357 kts | 283° |
| 2026-05-05 01:00 | -34.90463 | -58.19935 | 23139 ft | 356 kts | 283° |
| 2026-05-05 01:01 | -34.89780 | -58.22805 | 22721 ft | 350 kts | 283° |
| 2026-05-05 01:01 | -34.89107 | -58.25624 | 22325 ft | 344 kts | 283° |
| 2026-05-05 01:01 | -34.88443 | -58.28392 | 21922 ft | 339 kts | 283° |
| 2026-05-05 01:01 | -34.87786 | -58.31130 | 21524 ft | 334 kts | 283° |
| 2026-05-05 01:02 | -34.87139 | -58.33825 | 21126 ft | 329 kts | 283° |
| 2026-05-05 01:02 | -34.86504 | -58.36479 | 20721 ft | 325 kts | 283° |
| 2026-05-05 01:02 | -34.85872 | -58.39105 | 20321 ft | 321 kts | 283° |
| 2026-05-05 01:02 | -34.85252 | -58.41690 | 19921 ft | 317 kts | 283° |
| 2026-05-05 01:03 | -34.84643 | -58.44224 | 19532 ft | 314 kts | 283° |
| 2026-05-05 01:03 | -34.84024 | -58.46798 | 19132 ft | 311 kts | 283° |
| 2026-05-05 01:03 | -34.83426 | -58.49285 | 18742 ft | 309 kts | 283° |
| 2026-05-05 01:03 | -34.82732 | -58.51748 | 18345 ft | 309 kts | 291° |
| 2026-05-05 01:04 | -34.81596 | -58.53998 | 17871 ft | 315 kts | 303° |
| 2026-05-05 01:04 | -34.78273 | -58.57579 | 16910 ft | 321 kts | 314° |
| 2026-05-05 01:04 | -34.76532 | -58.59276 | 16414 ft | 320 kts | 314° |
| 2026-05-05 01:05 | -34.74801 | -58.60968 | 16005 ft | 319 kts | 314° |
| 2026-05-05 01:05 | -34.73067 | -58.62664 | 15527 ft | 319 kts | 314° |
| 2026-05-05 01:05 | -34.71341 | -58.64354 | 15062 ft | 320 kts | 314° |
| 2026-05-05 01:05 | -34.69604 | -58.66054 | 14597 ft | 320 kts | 314° |
| 2026-05-05 01:06 | -34.67865 | -58.67754 | 14127 ft | 321 kts | 314° |
| 2026-05-05 01:06 | -34.66123 | -58.69456 | 13652 ft | 322 kts | 314° |
| 2026-05-05 01:06 | -34.64374 | -58.71161 | 13151 ft | 322 kts | 315° |
| 2026-05-05 01:06 | -34.62626 | -58.72864 | 12686 ft | 321 kts | 315° |
| 2026-05-05 01:07 | -34.60897 | -58.74546 | 12227 ft | 320 kts | 315° |
| 2026-05-05 01:07 | -34.59160 | -58.76235 | 11765 ft | 320 kts | 315° |
| 2026-05-05 01:07 | -34.57333 | -58.77773 | 11305 ft | 325 kts | 327° |
| 2026-05-05 01:07 | -34.55150 | -58.78649 | 10829 ft | 336 kts | 345° |
| 2026-05-05 01:08 | -34.52775 | -58.78673 | 10255 ft | 348 kts | 0° |
| 2026-05-05 01:08 | -34.50382 | -58.78372 | 10028 ft | 340 kts | 1° |
| 2026-05-05 01:08 | -34.48073 | -58.78074 | 9916 ft | 328 kts | 0° |
| 2026-05-05 01:08 | -34.45842 | -58.77791 | 9775 ft | 316 kts | 0° |
| 2026-05-05 01:09 | -34.43684 | -58.77526 | 9267 ft | 308 kts | 0° |
| 2026-05-05 01:09 | -34.41567 | -58.77274 | 8695 ft | 303 kts | 0° |
| 2026-05-05 01:09 | -34.39512 | -58.76785 | 8138 ft | 304 kts | 21° |
| 2026-05-05 01:09 | -34.37880 | -58.75192 | 7625 ft | 305 kts | 54° |
| 2026-05-05 01:10 | -34.37162 | -58.72828 | 7120 ft | 301 kts | 87° |
| 2026-05-05 01:10 | -34.37557 | -58.70393 | 6608 ft | 295 kts | 120° |
| 2026-05-05 01:10 | -34.38923 | -58.68622 | 6068 ft | 288 kts | 150° |
| 2026-05-05 01:10 | -34.40692 | -58.67492 | 5347 ft | 289 kts | 154° |
| 2026-05-05 01:11 | -34.42306 | -58.66042 | 4620 ft | 294 kts | 130° |
| 2026-05-05 01:11 | -34.43445 | -58.64013 | 4128 ft | 287 kts | 121° |
| 2026-05-05 01:11 | -34.44491 | -58.62002 | 3749 ft | 277 kts | 123° |
| 2026-05-05 01:11 | -34.45550 | -58.60095 | 3408 ft | 268 kts | 124° |
| 2026-05-05 01:12 | -34.46573 | -58.58284 | 3066 ft | 250 kts | 124° |
| 2026-05-05 01:12 | -34.47511 | -58.56616 | 2748 ft | 230 kts | 123° |
| 2026-05-05 01:12 | -34.48384 | -58.55060 | 2462 ft | 217 kts | 122° |
| 2026-05-05 01:12 | -34.49195 | -58.53613 | 2200 ft | 196 kts | 122° |
| 2026-05-05 01:13 | -34.49923 | -58.52315 | 1938 ft | 179 kts | 121° |
| 2026-05-05 01:13 | -34.50585 | -58.51132 | 1706 ft | 163 kts | 121° |
| 2026-05-05 01:13 | -34.51206 | -58.50022 | 1494 ft | 157 kts | 120° |
| 2026-05-05 01:13 | -34.51810 | -58.48940 | 1288 ft | 154 kts | 121° |
| 2026-05-05 01:14 | -34.52396 | -58.47893 | 1084 ft | 151 kts | 121° |
| 2026-05-05 01:14 | -34.52984 | -58.46839 | 889 ft | 150 kts | 121° |
| 2026-05-05 01:14 | -34.53574 | -58.45787 | 684 ft | 148 kts | 122° |
| 2026-05-05 01:14 | -34.54144 | -58.44754 | 481 ft | 147 kts | 122° |
| 2026-05-05 01:15 | -34.54712 | -58.43737 | 293 ft | 146 kts | 124° |
| 2026-05-05 01:15 | -34.55284 | -58.42717 | 100 ft | 146 kts | 124° |
| 2026-05-05 01:15 | -34.55824 | -58.41742 | 28 ft | 124 kts | 124° |
| 2026-05-05 01:15 | -34.56210 | -58.41075 | 26 ft | 67 kts | 124° |
| 2026-05-05 01:16 | -34.56355 | -58.40804 | 28 ft | 27 kts | 121° |
| 2026-05-05 01:16 | -34.56393 | -58.40736 | 28 ft | 9 kts | 126° |
| 2026-05-05 01:16 | -34.56392 | -58.40670 | 30 ft | 9 kts | 31° |
| 2026-05-05 01:16 | -34.56331 | -58.40687 | 30 ft | 11 kts | 315° |
| 2026-05-05 01:17 | -34.56270 | -58.40756 | 30 ft | 13 kts | 320° |
| 2026-05-05 01:17 | -34.56196 | -58.40836 | 28 ft | 15 kts | 315° |
| 2026-05-05 01:17 | -34.56144 | -58.40943 | 27 ft | 14 kts | 298° |
| 2026-05-05 01:17 | -34.56089 | -58.41035 | 28 ft | 10 kts | 309° |
| 2026-05-05 01:18 | -34.56083 | -58.41044 | 28 ft | 2 kts | 306° |
| 2026-05-05 01:18 | -34.56069 | -58.41068 | 27 ft | 6 kts | 306° |
| 2026-05-05 01:18 | -34.56027 | -58.41137 | 29 ft | 14 kts | 307° |
| 2026-05-05 01:18 | -34.55966 | -58.41234 | 27 ft | 15 kts | 307° |
| 2026-05-05 01:19 | -34.55906 | -58.41348 | 28 ft | 11 kts | 296° |
| 2026-05-05 01:19 | -34.55879 | -58.41413 | 26 ft | 1 kts | 296° |
| 2026-05-05 01:19 | -34.55862 | -58.41454 | 29 ft | 7 kts | 297° |
| 2026-05-05 01:19 | -34.55845 | -58.41493 | 30 ft | 3 kts | 297° |
| 2026-05-05 01:20 | -34.55831 | -58.41528 | 29 ft | 4 kts | 298° |
| 2026-05-05 01:20 | -34.55808 | -58.41579 | 28 ft | 11 kts | 298° |
| 2026-05-05 01:20 | -34.55783 | -58.41619 | 30 ft | 0 kts | 340° |
| 2026-05-05 01:20 | -34.55777 | -58.41612 | 29 ft | 3 kts | 46° |
| 2026-05-05 01:21 | -34.55735 | -58.41589 | 27 ft | 10 kts | 324° |
| 2026-05-05 01:21 | -34.55678 | -58.41675 | 26 ft | 12 kts | 306° |
| 2026-05-05 01:21 | -34.55634 | -58.41760 | 26 ft | 11 kts | 305° |
| 2026-05-05 01:21 | -34.55575 | -58.41752 | 28 ft | 8 kts | 33° |
| 2026-05-05 01:22 | -34.55551 | -58.41732 | 25 ft | 2 kts | 35° |
| 2026-05-05 01:22 | -34.55538 | -58.41721 | 25 ft | 1 kts | 32° |
| 2026-05-05 01:22 | -34.55533 | -58.41718 | 25 ft | 0 kts | 32° |